Nahanni Butte, Canada
Current Conditions -  °F | °C
As of 8:00 AM on Wednesday 26 Nov 2014 (Local Time) from CYFS Reporting Station
Light Snow Light Snow  
Wind Chill: -6°   Ceiling: 3500
Heat Index: -6°   Visibility: 12mi
Dew Point: -11°   Wind: 2mph
Humidity: 77%   Direction: NA
Pressure: 30.39"   Gusts: NA
Location:  61.05°N, 123.37°W
Report Text: CYFS 261500Z VRB02KT 12SM -SN BKN035 M21/M24 A3039 RMK SC7 SLP317
Loading
Personal Weather Stations






























Interactive Weather Map New forecast layout! Learn more

10-Day Weather Forecast

Advertisements
Track Severe Weather on mobile